sensor_id;sensor_type;location;lat;lon;timestamp;temperature;humidity
19947;DHT22;10135;50.702;7.276;2023-05-07T05:32:35;17.50;65.60
19947;DHT22;10135;50.702;7.276;2023-05-07T05:34:36;17.50;65.30
19947;DHT22;10135;50.702;7.276;2023-05-07T05:36:36;17.50;65.50
19947;DHT22;10135;50.702;7.276;2023-05-07T05:38:37;17.60;65.50
19947;DHT22;10135;50.702;7.276;2023-05-07T05:40:38;17.60;65.50
19947;DHT22;10135;50.702;7.276;2023-05-07T05:42:38;17.70;65.50
19947;DHT22;10135;50.702;7.276;2023-05-07T05:44:39;17.70;65.50
19947;DHT22;10135;50.702;7.276;2023-05-07T05:46:40;17.70;65.50
19947;DHT22;10135;50.702;7.276;2023-05-07T05:48:41;17.80;65.60
19947;DHT22;10135;50.702;7.276;2023-05-07T05:50:42;17.90;65.50
19947;DHT22;10135;50.702;7.276;2023-05-07T05:52:43;17.90;65.50
19947;DHT22;10135;50.702;7.276;2023-05-07T05:54:43;18.00;65.40
19947;DHT22;10135;50.702;7.276;2023-05-07T05:56:44;18.00;65.40
19947;DHT22;10135;50.702;7.276;2023-05-07T05:58:45;18.10;65.50
19947;DHT22;10135;50.702;7.276;2023-05-07T06:00:46;18.10;65.40
19947;DHT22;10135;50.702;7.276;2023-05-07T06:02:48;18.20;65.40
19947;DHT22;10135;50.702;7.276;2023-05-07T06:04:49;18.20;65.40
19947;DHT22;10135;50.702;7.276;2023-05-07T06:06:50;18.30;65.40
19947;DHT22;10135;50.702;7.276;2023-05-07T06:08:50;18.40;65.40
19947;DHT22;10135;50.702;7.276;2023-05-07T06:10:51;18.50;65.40
19947;DHT22;10135;50.702;7.276;2023-05-07T06:12:52;18.50;65.50
19947;DHT22;10135;50.702;7.276;2023-05-07T06:14:53;18.70;65.80
19947;DHT22;10135;50.702;7.276;2023-05-07T06:16:53;18.80;65.80
19947;DHT22;10135;50.702;7.276;2023-05-07T06:18:54;18.90;65.60
19947;DHT22;10135;50.702;7.276;2023-05-07T06:20:55;19.10;65.50
19947;DHT22;10135;50.702;7.276;2023-05-07T06:22:55;19.10;65.30
19947;DHT22;10135;50.702;7.276;2023-05-07T06:24:56;19.30;65.20
19947;DHT22;10135;50.702;7.276;2023-05-07T06:26:56;19.30;65.10
19947;DHT22;10135;50.702;7.276;2023-05-07T06:28:58;19.40;65.00
19947;DHT22;10135;50.702;7.276;2023-05-07T06:31:11;19.50;64.80
19947;DHT22;10135;50.702;7.276;2023-05-07T06:33:13;19.50;64.40
19947;DHT22;10135;50.702;7.276;2023-05-07T06:35:13;19.60;64.50
19947;DHT22;10135;50.702;7.276;2023-05-07T06:37:14;19.60;64.40
19947;DHT22;10135;50.702;7.276;2023-05-07T06:39:15;19.70;64.30
19947;DHT22;10135;50.702;7.276;2023-05-07T06:41:15;19.70;64.20
19947;DHT22;10135;50.702;7.276;2023-05-07T06:43:16;19.80;64.20
19947;DHT22;10135;50.702;7.276;2023-05-07T06:45:16;19.80;64.00
19947;DHT22;10135;50.702;7.276;2023-05-07T06:47:17;19.80;63.90
19947;DHT22;10135;50.702;7.276;2023-05-07T06:49:18;19.90;63.90
19947;DHT22;10135;50.702;7.276;2023-05-07T06:51:18;19.90;64.70
19947;DHT22;10135;50.702;7.276;2023-05-07T06:53:19;19.90;63.90
19947;DHT22;10135;50.702;7.276;2023-05-07T06:55:20;19.90;63.90
19947;DHT22;10135;50.702;7.276;2023-05-07T06:57:21;20.00;63.90
19947;DHT22;10135;50.702;7.276;2023-05-07T06:59:21;20.00;63.70
19947;DHT22;10135;50.702;7.276;2023-05-07T07:01:22;20.00;63.70
19947;DHT22;10135;50.702;7.276;2023-05-07T07:03:23;20.00;63.60
19947;DHT22;10135;50.702;7.276;2023-05-07T07:05:23;20.00;63.50
19947;DHT22;10135;50.702;7.276;2023-05-07T07:07:24;20.10;63.50
19947;DHT22;10135;50.702;7.276;2023-05-07T07:09:25;20.10;63.40
19947;DHT22;10135;50.702;7.276;2023-05-07T07:11:25;20.10;63.30
19947;DHT22;10135;50.702;7.276;2023-05-07T07:13:26;20.10;63.20
19947;DHT22;10135;50.702;7.276;2023-05-07T07:15:27;20.10;63.10
19947;DHT22;10135;50.702;7.276;2023-05-07T07:17:27;20.10;63.10
19947;DHT22;10135;50.702;7.276;2023-05-07T07:19:28;20.10;63.10
19947;DHT22;10135;50.702;7.276;2023-05-07T07:21:29;20.10;63.10
19947;DHT22;10135;50.702;7.276;2023-05-07T07:23:30;20.10;63.10
19947;DHT22;10135;50.702;7.276;2023-05-07T07:25:31;20.10;63.00
19947;DHT22;10135;50.702;7.276;2023-05-07T07:27:32;20.10;63.00
19947;DHT22;10135;50.702;7.276;2023-05-07T07:29:33;20.10;63.00
19947;DHT22;10135;50.702;7.276;2023-05-07T07:31:33;20.10;62.90
19947;DHT22;10135;50.702;7.276;2023-05-07T07:33:34;20.10;62.90
19947;DHT22;10135;50.702;7.276;2023-05-07T07:35:35;20.10;62.90
19947;DHT22;10135;50.702;7.276;2023-05-07T07:37:35;20.10;62.90
19947;DHT22;10135;50.702;7.276;2023-05-07T07:39:36;20.10;62.90
19947;DHT22;10135;50.702;7.276;2023-05-07T07:41:41;20.10;62.90
19947;DHT22;10135;50.702;7.276;2023-05-07T07:43:41;20.10;62.90
19947;DHT22;10135;50.702;7.276;2023-05-07T07:45:42;20.10;62.90
19947;DHT22;10135;50.702;7.276;2023-05-07T07:47:43;20.20;62.90
19947;DHT22;10135;50.702;7.276;2023-05-07T07:49:44;20.20;62.90
19947;DHT22;10135;50.702;7.276;2023-05-07T07:51:44;20.20;62.80
19947;DHT22;10135;50.702;7.276;2023-05-07T07:53:45;20.20;62.90
19947;DHT22;10135;50.702;7.276;2023-05-07T07:55:46;20.30;62.80
19947;DHT22;10135;50.702;7.276;2023-05-07T07:57:47;20.30;62.80
19947;DHT22;10135;50.702;7.276;2023-05-07T07:59:47;20.40;62.80
19947;DHT22;10135;50.702;7.276;2023-05-07T08:01:48;20.40;62.80
19947;DHT22;10135;50.702;7.276;2023-05-07T08:03:50;20.50;62.80
19947;DHT22;10135;50.702;7.276;2023-05-07T08:05:51;20.50;62.70
19947;DHT22;10135;50.702;7.276;2023-05-07T08:07:51;20.60;62.70
19947;DHT22;10135;50.702;7.276;2023-05-07T08:09:53;20.60;62.70
19947;DHT22;10135;50.702;7.276;2023-05-07T08:11:54;20.70;62.70
19947;DHT22;10135;50.702;7.276;2023-05-07T08:13:55;20.80;62.70
19947;DHT22;10135;50.702;7.276;2023-05-07T08:15:56;20.80;62.60
19947;DHT22;10135;50.702;7.276;2023-05-07T08:17:58;20.90;62.60
19947;DHT22;10135;50.702;7.276;2023-05-07T08:20:00;21.00;62.60
19947;DHT22;10135;50.702;7.276;2023-05-07T08:22:05;21.10;62.80
19947;DHT22;10135;50.702;7.276;2023-05-07T08:24:06;21.20;62.70
19947;DHT22;10135;50.702;7.276;2023-05-07T08:26:08;21.30;62.50
19947;DHT22;10135;50.702;7.276;2023-05-07T08:28:08;21.40;62.20
19947;DHT22;10135;50.702;7.276;2023-05-07T08:30:09;21.50;62.90
19947;DHT22;10135;50.702;7.276;2023-05-07T08:32:10;21.60;62.10
19947;DHT22;10135;50.702;7.276;2023-05-07T08:34:11;21.70;62.20
19947;DHT22;10135;50.702;7.276;2023-05-07T08:36:12;21.80;62.10
19947;DHT22;10135;50.702;7.276;2023-05-07T08:38:12;21.90;62.00
19947;DHT22;10135;50.702;7.276;2023-05-07T08:40:13;22.00;62.10
19947;DHT22;10135;50.702;7.276;2023-05-07T08:42:16;22.20;62.00
19947;DHT22;10135;50.702;7.276;2023-05-07T08:44:20;22.30;61.70
19947;DHT22;10135;50.702;7.276;2023-05-07T08:46:25;22.50;61.50
19947;DHT22;10135;50.702;7.276;2023-05-07T08:48:32;22.50;61.20
19947;DHT22;10135;50.702;7.276;2023-05-07T08:50:35;22.70;61.10
19947;DHT22;10135;50.702;7.276;2023-05-07T08:52:37;22.80;61.10
19947;DHT22;10135;50.702;7.276;2023-05-07T08:54:37;22.90;60.90
19947;DHT22;10135;50.702;7.276;2023-05-07T08:56:39;22.90;60.60
19947;DHT22;10135;50.702;7.276;2023-05-07T08:58:40;23.00;60.40
19947;DHT22;10135;50.702;7.276;2023-05-07T09:00:42;23.00;60.20
19947;DHT22;10135;50.702;7.276;2023-05-07T09:02:42;23.00;60.10
19947;DHT22;10135;50.702;7.276;2023-05-07T09:04:43;23.00;59.90
19947;DHT22;10135;50.702;7.276;2023-05-07T09:06:44;23.00;59.80
19947;DHT22;10135;50.702;7.276;2023-05-07T09:08:53;23.00;59.60
19947;DHT22;10135;50.702;7.276;2023-05-07T09:10:54;23.10;59.30
19947;DHT22;10135;50.702;7.276;2023-05-07T09:12:55;23.10;59.60
19947;DHT22;10135;50.702;7.276;2023-05-07T09:14:56;23.10;59.60
19947;DHT22;10135;50.702;7.276;2023-05-07T09:16:57;23.10;59.60
19947;DHT22;10135;50.702;7.276;2023-05-07T09:18:59;23.20;59.60
19947;DHT22;10135;50.702;7.276;2023-05-07T09:21:00;23.20;59.60
19947;DHT22;10135;50.702;7.276;2023-05-07T09:23:01;23.30;59.60
19947;DHT22;10135;50.702;7.276;2023-05-07T09:25:02;23.30;59.50
19947;DHT22;10135;50.702;7.276;2023-05-07T09:27:03;23.40;59.40
19947;DHT22;10135;50.702;7.276;2023-05-07T09:29:06;23.50;59.30
19947;DHT22;10135;50.702;7.276;2023-05-07T09:31:09;23.50;59.20
19947;DHT22;10135;50.702;7.276;2023-05-07T09:33:10;23.60;59.10
19947;DHT22;10135;50.702;7.276;2023-05-07T09:35:15;23.60;59.00
19947;DHT22;10135;50.702;7.276;2023-05-07T09:37:21;23.70;59.30
19947;DHT22;10135;50.702;7.276;2023-05-07T09:39:23;23.70;59.00
19947;DHT22;10135;50.702;7.276;2023-05-07T09:41:24;23.80;58.90
19947;DHT22;10135;50.702;7.276;2023-05-07T09:43:26;23.90;58.80
19947;DHT22;10135;50.702;7.276;2023-05-07T09:45:31;23.90;58.70
19947;DHT22;10135;50.702;7.276;2023-05-07T09:47:36;24.00;58.60
19947;DHT22;10135;50.702;7.276;2023-05-07T09:49:46;24.00;58.20
19947;DHT22;10135;50.702;7.276;2023-05-07T09:51:50;24.10;58.20
19947;DHT22;10135;50.702;7.276;2023-05-07T09:53:52;24.10;58.30
19947;DHT22;10135;50.702;7.276;2023-05-07T09:55:54;24.20;58.20
19947;DHT22;10135;50.702;7.276;2023-05-07T09:57:57;24.20;58.00
19947;DHT22;10135;50.702;7.276;2023-05-07T09:59:59;24.20;57.90
19947;DHT22;10135;50.702;7.276;2023-05-07T10:02:04;24.30;57.70
19947;DHT22;10135;50.702;7.276;2023-05-07T10:04:06;24.30;57.70
19947;DHT22;10135;50.702;7.276;2023-05-07T10:06:10;24.40;57.70
19947;DHT22;10135;50.702;7.276;2023-05-07T10:08:11;24.40;57.50
19947;DHT22;10135;50.702;7.276;2023-05-07T10:10:12;24.40;57.50
19947;DHT22;10135;50.702;7.276;2023-05-07T10:12:13;24.50;57.50
19947;DHT22;10135;50.702;7.276;2023-05-07T10:14:14;24.60;57.40
19947;DHT22;10135;50.702;7.276;2023-05-07T10:16:16;24.60;57.30
19947;DHT22;10135;50.702;7.276;2023-05-07T10:18:18;24.70;57.30
19947;DHT22;10135;50.702;7.276;2023-05-07T10:20:23;24.90;57.20
19947;DHT22;10135;50.702;7.276;2023-05-07T10:22:25;24.90;57.00
19947;DHT22;10135;50.702;7.276;2023-05-07T10:24:32;25.00;56.70
19947;DHT22;10135;50.702;7.276;2023-05-07T10:26:35;25.10;56.10
19947;DHT22;10135;50.702;7.276;2023-05-07T10:28:42;25.10;56.20
19947;DHT22;10135;50.702;7.276;2023-05-07T10:33:08;25.10;56.00
19947;DHT22;10135;50.702;7.276;2023-05-07T10:35:23;25.20;55.70
19947;DHT22;10135;50.702;7.276;2023-05-07T10:37:26;25.20;55.30
19947;DHT22;10135;50.702;7.276;2023-05-07T10:39:27;25.20;55.90
19947;DHT22;10135;50.702;7.276;2023-05-07T10:41:28;25.30;55.90
19947;DHT22;10135;50.702;7.276;2023-05-07T10:43:39;25.30;55.70
19947;DHT22;10135;50.702;7.276;2023-05-07T10:45:41;25.30;55.10
19947;DHT22;10135;50.702;7.276;2023-05-07T10:48:14;25.30;55.50
19947;DHT22;10135;50.702;7.276;2023-05-07T10:52:19;25.40;55.60
19947;DHT22;10135;50.702;7.276;2023-05-07T10:54:22;25.50;55.50
19947;DHT22;10135;50.702;7.276;2023-05-07T10:56:25;25.50;55.30
19947;DHT22;10135;50.702;7.276;2023-05-07T10:58:27;25.60;55.70
19947;DHT22;10135;50.702;7.276;2023-05-07T11:05:21;25.70;54.50
19947;DHT22;10135;50.702;7.276;2023-05-07T11:07:26;25.70;54.30
19947;DHT22;10135;50.702;7.276;2023-05-07T11:11:52;25.70;53.70
19947;DHT22;10135;50.702;7.276;2023-05-07T11:13:52;25.70;54.40
19947;DHT22;10135;50.702;7.276;2023-05-07T11:15:53;25.70;54.30
19947;DHT22;10135;50.702;7.276;2023-05-07T11:17:58;25.70;54.30
19947;DHT22;10135;50.702;7.276;2023-05-07T11:20:01;25.70;53.70
19947;DHT22;10135;50.702;7.276;2023-05-07T11:22:02;25.70;54.00
19947;DHT22;10135;50.702;7.276;2023-05-07T11:24:05;25.70;54.00
19947;DHT22;10135;50.702;7.276;2023-05-07T11:26:08;25.80;53.80
19947;DHT22;10135;50.702;7.276;2023-05-07T11:28:10;25.80;53.80
19947;DHT22;10135;50.702;7.276;2023-05-07T11:30:17;25.80;53.80
19947;DHT22;10135;50.702;7.276;2023-05-07T11:32:29;25.80;53.50
19947;DHT22;10135;50.702;7.276;2023-05-07T11:34:30;25.80;53.00
19947;DHT22;10135;50.702;7.276;2023-05-07T11:36:32;25.70;53.50
19947;DHT22;10135;50.702;7.276;2023-05-07T11:38:37;25.70;53.30
19947;DHT22;10135;50.702;7.276;2023-05-07T11:40:58;25.70;52.80
19947;DHT22;10135;50.702;7.276;2023-05-07T11:43:11;25.60;52.40
19947;DHT22;10135;50.702;7.276;2023-05-07T11:45:12;25.50;52.20
19947;DHT22;10135;50.702;7.276;2023-05-07T11:47:24;25.50;52.90
19947;DHT22;10135;50.702;7.276;2023-05-07T11:49:28;25.40;52.90
19947;DHT22;10135;50.702;7.276;2023-05-07T11:51:30;25.30;53.00
19947;DHT22;10135;50.702;7.276;2023-05-07T11:53:38;25.20;53.00
19947;DHT22;10135;50.702;7.276;2023-05-07T11:55:41;25.10;53.10
19947;DHT22;10135;50.702;7.276;2023-05-07T11:57:42;25.00;53.30
19947;DHT22;10135;50.702;7.276;2023-05-07T11:59:43;24.90;53.50
19947;DHT22;10135;50.702;7.276;2023-05-07T12:01:50;24.70;53.60
19947;DHT22;10135;50.702;7.276;2023-05-07T12:03:50;24.60;53.70
19947;DHT22;10135;50.702;7.276;2023-05-07T12:05:51;24.40;53.90
19947;DHT22;10135;50.702;7.276;2023-05-07T12:07:56;24.30;54.10
19947;DHT22;10135;50.702;7.276;2023-05-07T12:09:57;24.20;54.40
19947;DHT22;10135;50.702;7.276;2023-05-07T12:12:03;24.10;54.50
19947;DHT22;10135;50.702;7.276;2023-05-07T12:14:04;24.00;54.80
19947;DHT22;10135;50.702;7.276;2023-05-07T12:16:06;23.90;54.70
19947;DHT22;10135;50.702;7.276;2023-05-07T12:18:07;23.70;54.80
19947;DHT22;10135;50.702;7.276;2023-05-07T12:20:09;23.60;55.00
19947;DHT22;10135;50.702;7.276;2023-05-07T12:22:11;23.40;55.10
19947;DHT22;10135;50.702;7.276;2023-05-07T12:24:14;23.30;55.40
19947;DHT22;10135;50.702;7.276;2023-05-07T12:26:15;23.20;55.60
19947;DHT22;10135;50.702;7.276;2023-05-07T12:28:17;23.10;55.70
19947;DHT22;10135;50.702;7.276;2023-05-07T12:30:18;23.00;56.00
19947;DHT22;10135;50.702;7.276;2023-05-07T12:32:22;22.90;56.10
19947;DHT22;10135;50.702;7.276;2023-05-07T12:34:22;22.80;56.40
19947;DHT22;10135;50.702;7.276;2023-05-07T12:36:23;22.70;56.20
19947;DHT22;10135;50.702;7.276;2023-05-07T12:38:25;22.70;56.30
19947;DHT22;10135;50.702;7.276;2023-05-07T12:40:43;22.60;56.40
19947;DHT22;10135;50.702;7.276;2023-05-07T12:42:53;22.50;57.00
19947;DHT22;10135;50.702;7.276;2023-05-07T12:44:56;22.50;56.90
19947;DHT22;10135;50.702;7.276;2023-05-07T12:46:57;22.40;56.60
19947;DHT22;10135;50.702;7.276;2023-05-07T12:48:58;22.40;56.70
19947;DHT22;10135;50.702;7.276;2023-05-07T12:51:00;22.30;56.80
19947;DHT22;10135;50.702;7.276;2023-05-07T12:53:06;22.30;56.90
19947;DHT22;10135;50.702;7.276;2023-05-07T12:55:14;22.20;57.10
19947;DHT22;10135;50.702;7.276;2023-05-07T12:57:19;22.30;57.10
19947;DHT22;10135;50.702;7.276;2023-05-07T12:59:31;22.20;57.20
19947;DHT22;10135;50.702;7.276;2023-05-07T13:01:36;22.30;57.70
19947;DHT22;10135;50.702;7.276;2023-05-07T13:03:37;22.20;57.40
19947;DHT22;10135;50.702;7.276;2023-05-07T13:05:38;22.20;57.60
19947;DHT22;10135;50.702;7.276;2023-05-07T13:07:40;22.20;57.70
19947;DHT22;10135;50.702;7.276;2023-05-07T13:09:41;22.20;57.80
19947;DHT22;10135;50.702;7.276;2023-05-07T13:11:42;22.30;57.90
19947;DHT22;10135;50.702;7.276;2023-05-07T13:13:43;22.40;58.00
19947;DHT22;10135;50.702;7.276;2023-05-07T13:15:43;22.40;58.10
19947;DHT22;10135;50.702;7.276;2023-05-07T13:17:44;22.40;58.10
19947;DHT22;10135;50.702;7.276;2023-05-07T13:19:45;22.50;58.10
19947;DHT22;10135;50.702;7.276;2023-05-07T13:21:45;22.60;58.10
19947;DHT22;10135;50.702;7.276;2023-05-07T13:23:46;22.60;58.30
19947;DHT22;10135;50.702;7.276;2023-05-07T13:25:47;22.70;58.20
19947;DHT22;10135;50.702;7.276;2023-05-07T13:27:48;22.70;58.20
19947;DHT22;10135;50.702;7.276;2023-05-07T13:29:49;22.80;58.30
19947;DHT22;10135;50.702;7.276;2023-05-07T13:31:50;22.80;58.20
19947;DHT22;10135;50.702;7.276;2023-05-07T13:33:50;22.90;58.10
19947;DHT22;10135;50.702;7.276;2023-05-07T13:35:52;23.00;58.00
19947;DHT22;10135;50.702;7.276;2023-05-07T13:37:53;23.00;58.00
19947;DHT22;10135;50.702;7.276;2023-05-07T13:39:54;23.00;58.00
19947;DHT22;10135;50.702;7.276;2023-05-07T13:41:55;23.00;57.90
19947;DHT22;10135;50.702;7.276;2023-05-07T13:43:56;23.10;58.00
19947;DHT22;10135;50.702;7.276;2023-05-07T13:45:57;23.10;58.00
19947;DHT22;10135;50.702;7.276;2023-05-07T13:47:57;23.10;57.90
19947;DHT22;10135;50.702;7.276;2023-05-07T13:49:58;23.10;57.80
19947;DHT22;10135;50.702;7.276;2023-05-07T13:51:59;23.20;57.70
19947;DHT22;10135;50.702;7.276;2023-05-07T13:53:59;23.20;57.70
19947;DHT22;10135;50.702;7.276;2023-05-07T13:56:00;23.20;57.70
19947;DHT22;10135;50.702;7.276;2023-05-07T13:58:02;23.20;57.60
19947;DHT22;10135;50.702;7.276;2023-05-07T14:00:04;23.20;57.60
19947;DHT22;10135;50.702;7.276;2023-05-07T14:02:05;23.20;57.50
19947;DHT22;10135;50.702;7.276;2023-05-07T14:04:06;23.20;57.50
19947;DHT22;10135;50.702;7.276;2023-05-07T14:06:08;23.30;57.50
19947;DHT22;10135;50.702;7.276;2023-05-07T14:08:08;23.20;57.50
19947;DHT22;10135;50.702;7.276;2023-05-07T14:10:09;23.20;57.50
19947;DHT22;10135;50.702;7.276;2023-05-07T14:12:11;23.20;57.60
19947;DHT22;10135;50.702;7.276;2023-05-07T14:14:11;23.20;57.60
19947;DHT22;10135;50.702;7.276;2023-05-07T14:16:12;23.20;57.60
19947;DHT22;10135;50.702;7.276;2023-05-07T14:18:14;23.20;57.60
19947;DHT22;10135;50.702;7.276;2023-05-07T14:20:15;23.20;57.60
19947;DHT22;10135;50.702;7.276;2023-05-07T14:22:16;23.20;57.60
19947;DHT22;10135;50.702;7.276;2023-05-07T14:24:16;23.20;57.70
19947;DHT22;10135;50.702;7.276;2023-05-07T14:26:17;23.20;57.70
19947;DHT22;10135;50.702;7.276;2023-05-07T14:28:18;23.20;57.70
19947;DHT22;10135;50.702;7.276;2023-05-07T14:30:19;23.20;57.70
19947;DHT22;10135;50.702;7.276;2023-05-07T14:32:21;23.20;57.70
19947;DHT22;10135;50.702;7.276;2023-05-07T14:34:22;23.10;57.70
19947;DHT22;10135;50.702;7.276;2023-05-07T14:36:23;23.20;57.70
19947;DHT22;10135;50.702;7.276;2023-05-07T14:38:26;23.10;57.80
19947;DHT22;10135;50.702;7.276;2023-05-07T14:40:26;23.10;57.90
19947;DHT22;10135;50.702;7.276;2023-05-07T14:42:27;23.10;57.90
19947;DHT22;10135;50.702;7.276;2023-05-07T14:44:28;23.10;57.90
19947;DHT22;10135;50.702;7.276;2023-05-07T14:46:29;23.10;58.00
19947;DHT22;10135;50.702;7.276;2023-05-07T14:48:30;23.10;58.00
19947;DHT22;10135;50.702;7.276;2023-05-07T14:50:30;23.00;57.90
19947;DHT22;10135;50.702;7.276;2023-05-07T14:52:34;23.00;57.90
19947;DHT22;10135;50.702;7.276;2023-05-07T14:54:34;23.00;57.90
19947;DHT22;10135;50.702;7.276;2023-05-07T14:56:35;22.90;57.90
19947;DHT22;10135;50.702;7.276;2023-05-07T14:58:36;22.80;57.80
19947;DHT22;10135;50.702;7.276;2023-05-07T15:00:37;22.80;57.70
19947;DHT22;10135;50.702;7.276;2023-05-07T15:02:38;22.70;57.70
19947;DHT22;10135;50.702;7.276;2023-05-07T15:04:38;22.70;57.70
19947;DHT22;10135;50.702;7.276;2023-05-07T15:06:45;22.60;57.80
19947;DHT22;10135;50.702;7.276;2023-05-07T15:08:47;22.50;57.80
19947;DHT22;10135;50.702;7.276;2023-05-07T15:10:48;22.40;57.90
19947;DHT22;10135;50.702;7.276;2023-05-07T15:12:49;22.40;58.10
19947;DHT22;10135;50.702;7.276;2023-05-07T15:14:50;22.20;58.10
19947;DHT22;10135;50.702;7.276;2023-05-07T15:16:50;22.20;58.30
19947;DHT22;10135;50.702;7.276;2023-05-07T15:18:51;22.10;58.50
19947;DHT22;10135;50.702;7.276;2023-05-07T15:20:52;22.10;58.70
19947;DHT22;10135;50.702;7.276;2023-05-07T15:22:52;22.00;58.80
19947;DHT22;10135;50.702;7.276;2023-05-07T15:24:53;22.00;58.90
19947;DHT22;10135;50.702;7.276;2023-05-07T15:26:55;21.80;59.00
19947;DHT22;10135;50.702;7.276;2023-05-07T15:28:56;21.90;59.20
19947;DHT22;10135;50.702;7.276;2023-05-07T15:30:57;21.70;59.20
19947;DHT22;10135;50.702;7.276;2023-05-07T15:32:58;21.70;59.30
19947;DHT22;10135;50.702;7.276;2023-05-07T15:34:58;21.60;59.40
19947;DHT22;10135;50.702;7.276;2023-05-07T15:36:59;21.60;59.50
19947;DHT22;10135;50.702;7.276;2023-05-07T15:39:00;21.50;59.50
19947;DHT22;10135;50.702;7.276;2023-05-07T15:41:02;21.50;59.60
19947;DHT22;10135;50.702;7.276;2023-05-07T15:43:03;21.40;59.60
19947;DHT22;10135;50.702;7.276;2023-05-07T15:45:04;21.40;59.70
19947;DHT22;10135;50.702;7.276;2023-05-07T15:47:06;21.40;59.80
19947;DHT22;10135;50.702;7.276;2023-05-07T15:49:06;21.30;59.80
19947;DHT22;10135;50.702;7.276;2023-05-07T15:51:07;21.30;59.90
19947;DHT22;10135;50.702;7.276;2023-05-07T15:53:09;21.30;60.00
19947;DHT22;10135;50.702;7.276;2023-05-07T15:55:09;21.20;60.10
19947;DHT22;10135;50.702;7.276;2023-05-07T15:57:10;21.20;60.20
19947;DHT22;10135;50.702;7.276;2023-05-07T15:59:11;21.20;60.30
19947;DHT22;10135;50.702;7.276;2023-05-07T16:01:12;21.20;60.40
19947;DHT22;10135;50.702;7.276;2023-05-07T16:03:12;21.10;60.40
19947;DHT22;10135;50.702;7.276;2023-05-07T16:05:13;21.10;60.50
19947;DHT22;10135;50.702;7.276;2023-05-07T16:07:14;21.10;60.70
19947;DHT22;10135;50.702;7.276;2023-05-07T16:09:15;21.00;60.70
19947;DHT22;10135;50.702;7.276;2023-05-07T16:11:16;21.00;60.80
19947;DHT22;10135;50.702;7.276;2023-05-07T16:13:16;21.00;60.90
19947;DHT22;10135;50.702;7.276;2023-05-07T16:15:18;21.00;61.00
19947;DHT22;10135;50.702;7.276;2023-05-07T16:17:19;20.90;61.10
19947;DHT22;10135;50.702;7.276;2023-05-07T16:19:19;20.90;61.20
19947;DHT22;10135;50.702;7.276;2023-05-07T16:21:20;20.80;61.20
19947;DHT22;10135;50.702;7.276;2023-05-07T16:23:21;20.80;61.40
19947;DHT22;10135;50.702;7.276;2023-05-07T16:25:22;20.80;61.60
19947;DHT22;10135;50.702;7.276;2023-05-07T16:27:22;20.80;61.70
19947;DHT22;10135;50.702;7.276;2023-05-07T16:29:23;20.80;61.80
19947;DHT22;10135;50.702;7.276;2023-05-07T16:31:24;20.70;61.90
19947;DHT22;10135;50.702;7.276;2023-05-07T16:33:25;20.80;62.00
19947;DHT22;10135;50.702;7.276;2023-05-07T16:35:26;20.70;62.00
19947;DHT22;10135;50.702;7.276;2023-05-07T16:37:26;20.70;62.10
19947;DHT22;10135;50.702;7.276;2023-05-07T16:39:27;20.70;62.20
19947;DHT22;10135;50.702;7.276;2023-05-07T16:41:27;20.70;62.30
19947;DHT22;10135;50.702;7.276;2023-05-07T16:43:28;20.70;62.50
19947;DHT22;10135;50.702;7.276;2023-05-07T16:45:29;20.70;62.50
19947;DHT22;10135;50.702;7.276;2023-05-07T16:47:30;20.60;62.60
19947;DHT22;10135;50.702;7.276;2023-05-07T16:49:31;20.60;62.70
19947;DHT22;10135;50.702;7.276;2023-05-07T16:51:33;20.60;62.70
19947;DHT22;10135;50.702;7.276;2023-05-07T16:53:34;20.60;63.00
19947;DHT22;10135;50.702;7.276;2023-05-07T16:55:36;20.60;63.00
19947;DHT22;10135;50.702;7.276;2023-05-07T16:57:38;20.60;63.00
19947;DHT22;10135;50.702;7.276;2023-05-07T16:59:39;20.50;63.00
19947;DHT22;10135;50.702;7.276;2023-05-07T17:01:39;20.60;63.20
19947;DHT22;10135;50.702;7.276;2023-05-07T17:03:41;20.50;63.10
19947;DHT22;10135;50.702;7.276;2023-05-07T17:05:42;20.50;63.20
19947;DHT22;10135;50.702;7.276;2023-05-07T17:07:43;20.50;63.30
19947;DHT22;10135;50.702;7.276;2023-05-07T17:09:43;20.50;63.40
19947;DHT22;10135;50.702;7.276;2023-05-07T17:11:44;20.50;63.40
19947;DHT22;10135;50.702;7.276;2023-05-07T17:13:45;20.50;63.50
19947;DHT22;10135;50.702;7.276;2023-05-07T17:15:45;20.40;63.50
19947;DHT22;10135;50.702;7.276;2023-05-07T17:17:46;20.40;63.60
19947;DHT22;10135;50.702;7.276;2023-05-07T17:19:47;20.40;63.60
19947;DHT22;10135;50.702;7.276;2023-05-07T17:21:48;20.40;63.70
19947;DHT22;10135;50.702;7.276;2023-05-07T17:23:49;20.40;63.80
19947;DHT22;10135;50.702;7.276;2023-05-07T17:25:49;20.40;63.80
19947;DHT22;10135;50.702;7.276;2023-05-07T17:27:50;20.30;63.80
19947;DHT22;10135;50.702;7.276;2023-05-07T17:29:50;20.30;63.80
19947;DHT22;10135;50.702;7.276;2023-05-07T17:31:51;20.30;63.90
19947;DHT22;10135;50.702;7.276;2023-05-07T17:33:52;20.30;64.00
19947;DHT22;10135;50.702;7.276;2023-05-07T17:35:53;20.30;64.10
19947;DHT22;10135;50.702;7.276;2023-05-07T17:37:54;20.30;64.20
19947;DHT22;10135;50.702;7.276;2023-05-07T17:39:55;20.30;64.30
19947;DHT22;10135;50.702;7.276;2023-05-07T17:41:55;20.20;64.40
19947;DHT22;10135;50.702;7.276;2023-05-07T17:43:56;20.20;64.40
19947;DHT22;10135;50.702;7.276;2023-05-07T17:45:56;20.20;64.50
19947;DHT22;10135;50.702;7.276;2023-05-07T17:47:57;20.20;64.60
19947;DHT22;10135;50.702;7.276;2023-05-07T17:49:58;20.20;64.60
19947;DHT22;10135;50.702;7.276;2023-05-07T17:51:58;20.20;64.60
19947;DHT22;10135;50.702;7.276;2023-05-07T17:53:59;20.20;65.40
19947;DHT22;10135;50.702;7.276;2023-05-07T17:56:00;20.20;64.60
19947;DHT22;10135;50.702;7.276;2023-05-07T17:58:00;20.10;64.60
19947;DHT22;10135;50.702;7.276;2023-05-07T18:00:03;20.10;64.60
19947;DHT22;10135;50.702;7.276;2023-05-07T18:02:09;20.10;64.60
19947;DHT22;10135;50.702;7.276;2023-05-07T18:04:09;20.10;64.70
19947;DHT22;10135;50.702;7.276;2023-05-07T18:06:10;20.00;64.70
19947;DHT22;10135;50.702;7.276;2023-05-07T18:08:14;20.00;64.80
19947;DHT22;10135;50.702;7.276;2023-05-07T18:10:14;20.00;64.80
19947;DHT22;10135;50.702;7.276;2023-05-07T18:12:15;20.00;64.80
19947;DHT22;10135;50.702;7.276;2023-05-07T18:14:16;20.00;64.90
19947;DHT22;10135;50.702;7.276;2023-05-07T18:16:16;20.00;64.90
19947;DHT22;10135;50.702;7.276;2023-05-07T18:18:18;19.90;64.90
19947;DHT22;10135;50.702;7.276;2023-05-07T18:20:19;19.90;64.90
19947;DHT22;10135;50.702;7.276;2023-05-07T18:22:19;19.90;64.90
19947;DHT22;10135;50.702;7.276;2023-05-07T18:24:20;19.90;64.90
19947;DHT22;10135;50.702;7.276;2023-05-07T18:26:21;19.80;64.90
19947;DHT22;10135;50.702;7.276;2023-05-07T18:28:21;19.80;65.00
19947;DHT22;10135;50.702;7.276;2023-05-07T18:30:22;19.80;65.10
19947;DHT22;10135;50.702;7.276;2023-05-07T18:32:23;19.80;65.10